Time;durP1;ratioP1;P1;durP2;ratioP2;P2;SDS_P1;SDS_P2;PMS_P1;PMS_P2;Temp;Humidity;BMP_temperature;BMP_pressure;BME280_temperature;BME280_humidity;BME280_pressure;Samples;Min_cycle;Max_cycle;Signal;HPM_P1;HPM_P2
2022/12/19 00:01:05;;;;;;;35.55;21.83;;;;;;;2.68;83.52;101556.19;3607982;39;20051;-63
2022/12/19 00:03:31;;;;;;;37.85;21.92;;;;;;;2.69;84.26;101557.94;3607057;39;20323;-63
2022/12/19 00:06:02;;;;;;;38.47;22.25;;;;;;;2.70;84.12;101557.06;3611342;39;20065;-63
2022/12/19 00:08:28;;;;;;;38.70;22.13;;;;;;;2.72;83.68;101547.25;3614070;39;20055;-63
2022/12/19 00:11:00;;;;;;;39.05;22.08;;;;;;;2.73;84.18;101541.06;3609751;39;20062;-63
2022/12/19 00:13:29;;;;;;;37.05;22.73;;;;;;;2.74;83.85;101544.59;3609435;39;20294;-63
2022/12/19 00:15:54;;;;;;;34.90;21.27;;;;;;;2.79;83.77;101543.63;3609936;39;20050;-62
2022/12/19 00:18:20;;;;;;;40.40;24.65;;;;;;;2.79;84.13;101537.41;3609366;39;20062;-63
2022/12/19 00:20:59;;;;;;;37.80;21.95;;;;;;;2.81;84.25;101537.41;3606798;39;20566;-63
2022/12/19 00:23:29;;;;;;;38.00;22.15;;;;;;;2.78;84.18;101540.97;3609959;39;20094;-63
2022/12/19 00:25:55;;;;;;;39.30;22.55;;;;;;;2.76;84.58;101543.69;3608101;39;20047;-62
2022/12/19 00:28:21;;;;;;;38.72;23.15;;;;;;;2.78;84.37;101533.88;3608487;39;20054;-64
2022/12/19 00:30:47;;;;;;;37.85;22.38;;;;;;;2.68;84.70;101496.94;3609452;39;20070;-63
2022/12/19 00:33:12;;;;;;;34.95;20.92;;;;;;;2.89;84.03;101523.09;3605073;39;20059;-63
2022/12/19 00:35:38;;;;;;;36.53;22.33;;;;;;;2.79;83.40;101510.84;3606810;39;20066;-64
2022/12/19 00:38:04;;;;;;;36.97;21.80;;;;;;;2.90;84.51;101514.19;3605168;39;20320;-64
2022/12/19 00:40:29;;;;;;;38.42;22.33;;;;;;;2.93;84.12;101519.44;3604553;39;20063;-64
2022/12/19 00:42:55;;;;;;;37.83;22.77;;;;;;;2.98;83.49;101516.69;3607803;39;20069;-64
2022/12/19 00:45:21;;;;;;;35.78;22.23;;;;;;;3.00;83.69;101523.72;3607962;39;20086;-64
2022/12/19 00:47:46;;;;;;;35.60;21.80;;;;;;;3.05;84.26;101513.03;3608166;39;20051;-64
2022/12/19 00:50:12;;;;;;;36.88;22.60;;;;;;;3.07;84.39;101510.34;3610122;39;20104;-64
2022/12/19 00:52:38;;;;;;;40.88;23.23;;;;;;;3.10;84.33;101516.47;3606743;39;20101;-63
2022/12/19 00:55:04;;;;;;;35.22;20.90;;;;;;;3.11;83.89;101501.41;3605933;39;20412;-63
2022/12/19 00:57:30;;;;;;;36.42;22.08;;;;;;;3.12;84.12;101498.72;3597669;39;20043;-63
2022/12/19 00:59:55;;;;;;;36.53;22.00;;;;;;;3.16;84.61;101479.16;3608054;39;20066;-64
2022/12/19 01:02:21;;;;;;;39.10;21.85;;;;;;;3.01;83.89;101456.47;3606837;39;20050;-63
2022/12/19 01:04:47;;;;;;;39.28;21.73;;;;;;;3.22;83.91;101480.81;3606558;39;20372;-64
2022/12/19 01:07:12;;;;;;;36.00;21.75;;;;;;;3.20;83.48;101490.59;3609916;39;20378;-64
2022/12/19 01:09:38;;;;;;;34.63;21.33;;;;;;;3.25;83.50;101488.72;3609030;39;20071;-63
2022/12/19 01:14:53;;;;;;;33.78;21.10;;;;;;;3.32;83.30;101490.34;3609058;39;20487;-65
2022/12/19 01:17:18;;;;;;;36.53;22.33;;;;;;;3.33;83.28;101476.16;3605474;39;20062;-64
2022/12/19 01:19:44;;;;;;;38.72;23.55;;;;;;;3.34;83.90;101477.03;3606556;39;20118;-64
2022/12/19 01:22:11;;;;;;;35.63;21.10;;;;;;;3.34;83.40;101467.28;3609305;39;20078;-64
2022/12/19 01:24:37;;;;;;;38.00;21.33;;;;;;;3.31;83.84;101462.03;3608653;39;20062;-63
2022/12/19 01:27:03;;;;;;;33.58;20.60;;;;;;;3.40;84.04;101463.63;3606142;39;20066;-62
2022/12/19 01:29:28;;;;;;;35.28;21.75;;;;;;;3.42;83.13;101459.13;3606419;39;20050;-63
2022/12/19 01:31:54;;;;;;;35.80;21.27;;;;;;;3.44;83.05;101452.00;3607363;39;20051;-63
2022/12/19 01:34:19;;;;;;;36.38;20.50;;;;;;;3.46;83.60;101450.19;3605794;39;20309;-63
2022/12/19 01:36:45;;;;;;;33.75;20.83;;;;;;;3.43;83.24;101451.13;3606534;39;20097;-64
2022/12/19 01:39:11;;;;;;;32.83;20.20;;;;;;;3.51;83.33;101458.91;3608654;39;20285;-64
2022/12/19 01:41:36;;;;;;;33.13;19.83;;;;;;;3.51;83.66;101469.53;3606404;39;20073;-63
2022/12/19 01:44:06;;;;;;;34.35;20.40;;;;;;;3.54;84.03;101474.78;3601322;39;20063;-63
2022/12/19 01:46:45;;;;;;;35.25;21.15;;;;;;;3.59;83.19;101466.72;3609196;39;20051;-64
2022/12/19 01:49:29;;;;;;;32.80;20.90;;;;;;;3.59;83.08;101464.06;3605021;39;20105;-63
2022/12/19 01:52:00;;;;;;;;;;;;;;;3.54;82.99;101453.53;3605027;39;20055;-63
2022/12/19 01:54:35;;;;;;;37.97;20.92;;;;;;;3.23;83.29;101401.06;3603974;39;19927;-63
2022/12/19 01:57:06;;;;;;;32.05;20.42;;;;;;;3.57;83.28;101464.09;3605949;39;20063;-63
2022/12/19 01:59:47;;;;;;;37.65;21.27;;;;;;;3.31;83.10;101414.19;3606163;39;20283;-64
2022/12/19 02:02:24;;;;;;;34.40;21.45;;;;;;;3.55;83.29;101449.09;3609051;39;20111;-64
2022/12/19 02:04:50;;;;;;;33.78;20.42;;;;;;;3.56;83.96;101445.53;3606010;39;20051;-64
2022/12/19 02:07:21;;;;;;;35.33;21.88;;;;;;;3.57;84.20;101442.84;3608323;39;20061;-63
2022/12/19 02:09:52;;;;;;;36.78;20.85;;;;;;;3.47;83.92;101420.03;3607391;39;20051;-63
2022/12/19 02:12:19;;;;;;;38.33;22.33;;;;;;;3.55;84.44;101430.47;3604680;39;20066;-63
2022/12/19 02:14:45;;;;;;;36.15;21.80;;;;;;;3.51;84.04;101415.53;3608279;39;20047;-64
2022/12/19 02:17:33;;;;;;;37.63;21.17;;;;;;;3.51;84.30;101411.06;3610903;39;20055;-63
2022/12/19 02:20:42;;;;;;;38.90;22.48;;;;;;;3.57;84.13;101410.94;3608525;39;20081;-64
2022/12/19 02:23:19;;;;;;;36.92;21.42;;;;;;;3.59;84.82;101418.88;3607262;39;20051;-63
2022/12/19 02:26:20;;;;;;;34.22;21.83;;;;;;;3.60;84.85;101404.69;3609975;39;20474;-63
2022/12/19 02:29:22;;;;;;;38.95;21.52;;;;;;;3.61;84.71;101404.63;3607904;39;20051;-64
2022/12/19 02:32:02;;;;;;;36.15;22.48;;;;;;;3.61;85.32;101396.66;3611932;39;20124;-63
2022/12/19 02:34:49;;;;;;;35.40;21.48;;;;;;;3.61;84.61;101393.13;3609298;39;20055;-64
2022/12/19 02:37:29;;;;;;;38.38;21.27;;;;;;;3.63;85.51;101388.66;3608886;39;20071;-64
2022/12/19 02:40:05;;;;;;;35.15;21.95;;;;;;;3.59;85.56;101371.03;3609656;39;20071;-64
2022/12/19 02:42:40;;;;;;;37.13;21.00;;;;;;;3.79;86.09;101391.81;3606381;39;20118;-64
2022/12/19 02:45:12;;;;;;;37.40;22.42;;;;;;;3.81;86.03;101382.88;3609940;39;20469;-64
2022/12/19 02:47:40;;;;;;;33.72;20.33;;;;;;;3.89;86.67;101374.72;3605986;39;20063;-65
2022/12/19 02:50:07;;;;;;;35.53;21.00;;;;;;;3.95;86.77;101370.09;3594871;39;20051;-65
2022/12/19 02:52:33;;;;;;;33.33;20.50;;;;;;;4.03;86.84;101374.34;3606551;39;20419;-65
2022/12/19 02:55:08;;;;;;;33.45;20.90;;;;;;;4.03;86.20;101361.03;3608840;39;20067;-65
2022/12/19 02:57:59;;;;;;;36.78;21.77;;;;;;;4.11;86.81;101359.06;3608988;39;20059;-65
2022/12/19 03:00:27;;;;;;;33.60;20.17;;;;;;;4.15;86.22;101363.38;3606451;39;20275;-64
2022/12/19 03:03:30;;;;;;;29.40;19.25;;;;;;;4.15;86.40;101350.97;3608487;39;20072;-65
2022/12/19 03:06:33;;;;;;;32.40;20.15;;;;;;;4.21;86.79;101357.91;3606974;39;20066;-65
2022/12/19 03:09:47;;;;;;;33.30;20.30;;;;;;;4.28;86.70;101359.50;3606259;39;20059;-65
2022/12/19 03:12:38;;;;;;;33.53;20.15;;;;;;;4.32;86.87;101361.16;3592664;39;20291;-65
2022/12/19 03:15:08;;;;;;;33.05;19.30;;;;;;;4.34;86.85;101356.66;3609273;39;20315;-65
2022/12/19 03:17:37;;;;;;;32.30;19.05;;;;;;;4.37;87.08;101361.88;3608786;39;20127;-65
2022/12/19 03:20:22;;;;;;;31.90;19.15;;;;;;;4.45;87.34;101358.16;3607802;39;20378;-65
2022/12/19 03:22:48;;;;;;;33.00;18.50;;;;;;;4.52;87.83;101354.41;3607094;39;20282;-65
2022/12/19 03:25:14;;;;;;;30.65;18.42;;;;;;;4.55;88.06;101354.31;3607382;39;20066;-66
2022/12/19 03:27:40;;;;;;;28.65;17.60;;;;;;;4.58;87.91;101335.59;3605300;39;20381;-65
2022/12/19 03:30:12;;;;;;;28.95;18.23;;;;;;;4.70;87.77;101348.56;3607407;39;20054;-65
2022/12/19 03:32:42;;;;;;;29.75;18.35;;;;;;;4.75;88.46;101346.63;3608708;39;20071;-65
2022/12/19 03:35:20;;;;;;;29.13;17.38;;;;;;;4.82;88.11;101344.63;3611026;39;20042;-65
2022/12/19 03:37:51;;;;;;;29.67;17.98;;;;;;;4.89;88.74;101339.09;3608945;39;20337;-64
2022/12/19 03:40:23;;;;;;;26.50;15.95;;;;;;;4.99;88.70;101346.81;3606520;39;20055;-64
2022/12/19 03:43:08;;;;;;;27.48;16.23;;;;;;;4.97;88.54;101330.84;3606021;39;20055;-64
2022/12/19 03:45:49;;;;;;;23.92;15.45;;;;;;;5.12;88.61;101346.38;3607213;39;20132;-64
2022/12/19 03:48:36;;;;;;;21.90;13.93;;;;;;;5.18;88.74;101336.47;3606268;39;20047;-64
2022/12/19 03:51:33;;;;;;;22.83;13.95;;;;;;;5.28;89.17;101336.13;3607392;39;20379;-64
2022/12/19 03:54:17;;;;;;;23.67;14.52;;;;;;;5.37;89.61;101334.09;3608706;39;20054;-65
2022/12/19 03:56:51;;;;;;;;;;;;;;;5.43;89.72;101331.22;3612059;39;20131;-64
2022/12/19 03:59:30;;;;;;;24.17;14.30;;;;;;;5.47;90.08;101336.41;3604035;39;19970;-63
2022/12/19 04:01:58;;;;;;;20.50;11.93;;;;;;;5.56;90.12;101332.56;3606856;39;20051;-64
2022/12/19 04:04:27;;;;;;;24.50;13.90;;;;;;;5.56;90.06;101311.22;3608329;39;20055;-64
2022/12/19 04:06:55;;;;;;;22.88;14.05;;;;;;;5.70;90.04;101322.28;3607116;39;20056;-64
2022/12/19 04:09:23;;;;;;;21.90;14.63;;;;;;;5.74;89.88;101318.63;3607908;39;20100;-64
2022/12/19 04:12:03;;;;;;;21.52;13.20;;;;;;;5.82;89.96;101329.88;3611167;39;20370;-63
2022/12/19 04:14:36;;;;;;;21.02;13.57;;;;;;;5.89;90.12;101332.34;3611790;39;20063;-64
2022/12/19 04:17:26;;;;;;;;;;;;;;;5.92;89.78;101317.09;3606100;39;20404;-62
2022/12/19 04:20:10;;;;;;;17.88;12.65;;;;;;;5.95;89.75;101310.81;3607969;39;19931;-63
2022/12/19 04:22:40;;;;;;;17.15;11.40;;;;;;;6.01;90.11;101308.81;3608052;39;20865;-63
2022/12/19 04:25:15;;;;;;;19.60;12.40;;;;;;;5.57;89.89;101214.31;3609023;39;20051;-63
2022/12/19 04:27:51;;;;;;;20.92;12.85;;;;;;;6.16;90.48;101312.75;3609148;39;20091;-63
2022/12/19 04:30:18;;;;;;;18.45;11.90;;;;;;;6.19;89.94;101309.97;3607870;39;20067;-63
2022/12/19 04:32:46;;;;;;;17.58;12.25;;;;;;;6.23;90.53;101298.25;3614341;39;20267;-63
2022/12/19 04:35:13;;;;;;;17.42;12.10;;;;;;;6.26;90.07;101297.25;3608342;39;20094;-63
2022/12/19 04:37:39;;;;;;;17.48;11.63;;;;;;;6.33;89.89;101306.78;3605240;39;20102;-64
2022/12/19 04:40:08;;;;;;;18.70;12.15;;;;;;;6.36;90.39;101306.69;3607971;39;20059;-64
2022/12/19 04:42:33;;;;;;;17.02;11.45;;;;;;;6.40;90.57;101300.28;3606311;39;20071;-62
2022/12/19 04:44:59;;;;;;;15.15;10.20;;;;;;;6.43;89.96;101308.19;3610129;39;20102;-63
2022/12/19 04:47:24;;;;;;;17.35;11.52;;;;;;;6.42;89.86;101303.78;3608517;39;20566;-63
2022/12/19 04:49:50;;;;;;;16.73;11.07;;;;;;;6.49;90.32;101302.63;3613492;39;20062;-63
2022/12/19 04:52:16;;;;;;;16.95;11.07;;;;;;;6.51;90.22;101299.91;3606403;39;20051;-63
2022/12/19 04:54:41;;;;;;;15.80;11.48;;;;;;;6.56;90.55;101303.25;3604953;39;20306;-64
2022/12/19 04:57:07;;;;;;;16.33;11.40;;;;;;;6.60;90.17;101309.38;3605686;39;20047;-64
2022/12/19 04:59:33;;;;;;;17.40;11.55;;;;;;;6.58;90.31;101308.56;3606782;39;20140;-65
2022/12/19 05:01:59;;;;;;;16.52;10.95;;;;;;;6.64;90.36;101301.19;3611568;39;20357;-64
2022/12/19 05:04:24;;;;;;;15.60;11.40;;;;;;;6.67;90.30;101310.88;3609666;39;20057;-65
2022/12/19 05:06:50;;;;;;;14.95;10.30;;;;;;;6.72;90.48;101296.44;3607017;39;20087;-64
2022/12/19 05:09:16;;;;;;;15.23;10.27;;;;;;;6.57;89.48;101278.31;3604998;39;20484;-64
2022/12/19 05:11:42;;;;;;;16.35;10.82;;;;;;;6.67;89.73;101285.03;3611133;39;20070;-63
2022/12/19 05:14:08;;;;;;;17.50;11.27;;;;;;;6.74;90.15;101296.34;3607741;39;20094;-62
2022/12/19 05:16:34;;;;;;;15.90;10.77;;;;;;;6.78;90.01;101287.28;3608299;39;20078;-63
2022/12/19 05:19:00;;;;;;;17.25;11.25;;;;;;;6.84;90.59;101289.72;3609919;39;20059;-63
2022/12/19 05:21:26;;;;;;;15.68;11.07;;;;;;;6.85;90.53;101272.78;3609215;39;20102;-63
2022/12/19 05:23:52;;;;;;;15.77;10.95;;;;;;;6.64;90.27;101245.09;3606317;39;20054;-63
2022/12/19 05:26:18;;;;;;;17.15;11.00;;;;;;;6.90;90.42;101291.28;3603583;39;20070;-62
2022/12/19 05:28:44;;;;;;;13.75;10.05;;;;;;;6.94;90.60;101287.56;3605956;39;20050;-62
2022/12/19 05:31:15;;;;;;;13.18;9.88;;;;;;;6.81;90.41;101262.25;3605781;39;20062;-62
2022/12/19 05:33:42;;;;;;;15.23;10.23;;;;;;;7.03;90.51;101292.53;3604056;39;20418;-62
2022/12/19 05:36:11;;;;;;;14.45;10.50;;;;;;;7.04;89.95;101288.97;3605359;39;20063;-63
2022/12/19 05:38:37;;;;;;;12.93;9.93;;;;;;;7.06;90.17;101280.88;3604098;39;20050;-62
2022/12/19 05:41:09;;;;;;;14.27;10.10;;;;;;;7.10;90.49;101282.47;3608603;39;20062;-62
2022/12/19 05:43:35;;;;;;;13.55;9.38;;;;;;;7.11;89.98;101279.75;3602010;39;20203;-62
2022/12/19 05:46:03;;;;;;;16.10;10.07;;;;;;;7.14;90.74;101290.31;3609114;39;20132;-62
2022/12/19 05:48:29;;;;;;;14.00;10.13;;;;;;;7.14;90.49;101292.13;3611062;39;20066;-62
2022/12/19 05:50:55;;;;;;;13.20;10.00;;;;;;;7.20;90.25;101289.22;3608769;39;20087;-62
2022/12/19 05:53:21;;;;;;;12.63;9.40;;;;;;;7.19;90.10;101285.66;3606670;39;20058;-62
2022/12/19 05:55:46;;;;;;;14.25;9.52;;;;;;;7.26;90.07;101293.41;3608839;39;20066;-62
2022/12/19 05:58:12;;;;;;;12.52;9.23;;;;;;;7.29;90.53;101304.00;3609982;39;20361;-62
2022/12/19 06:00:38;;;;;;;12.77;9.10;;;;;;;7.33;90.27;101294.94;3603757;39;20050;-62
2022/12/19 06:03:03;;;;;;;12.43;9.50;;;;;;;7.38;89.80;101300.94;3608124;39;20051;-62
2022/12/19 06:05:29;;;;;;;12.80;9.43;;;;;;;7.38;90.17;101298.28;3605537;39;20059;-61
2022/12/19 06:07:55;;;;;;;10.13;8.57;;;;;;;7.40;89.32;101286.59;3614160;39;20066;-61
2022/12/19 06:10:20;;;;;;;11.45;9.30;;;;;;;7.43;89.30;101293.63;3608857;39;20272;-61
2022/12/19 06:12:46;;;;;;;12.27;8.20;;;;;;;7.46;90.12;101280.13;3610993;39;20055;-61
2022/12/19 06:15:11;;;;;;;12.05;8.98;;;;;;;7.50;89.46;101286.22;3608069;39;20055;-61
2022/12/19 06:17:37;;;;;;;12.35;8.25;;;;;;;7.53;89.30;101292.28;3606989;39;20051;-62
2022/12/19 06:20:03;;;;;;;12.88;9.43;;;;;;;7.52;89.81;101285.22;3613238;39;20050;-61
2022/12/19 06:22:29;;;;;;;12.35;9.05;;;;;;;7.62;89.38;101285.69;3610988;39;21587;-61
2022/12/19 06:24:55;;;;;;;15.32;9.10;;;;;;;7.62;89.65;101286.56;3613820;39;20440;-63
2022/12/19 06:27:20;;;;;;;11.30;8.65;;;;;;;7.63;89.03;101292.78;3608969;39;20062;-61
2022/12/19 06:29:46;;;;;;;12.82;9.20;;;;;;;7.64;89.10;101289.16;3604622;39;20381;-61
2022/12/19 06:32:11;;;;;;;12.25;8.95;;;;;;;7.67;89.77;101295.28;3605955;39;20151;-61
2022/12/19 06:34:37;;;;;;;12.80;8.45;;;;;;;7.74;89.30;101292.31;3610187;39;20062;-61
2022/12/19 06:37:02;;;;;;;11.77;8.15;;;;;;;7.76;89.57;101304.69;3612998;39;20317;-61
2022/12/19 06:39:28;;;;;;;10.32;8.73;;;;;;;7.77;88.74;101300.22;3607386;39;20058;-61
2022/12/19 06:44:38;;;;;;;13.43;8.93;;;;;;;7.77;88.66;101309.13;3604256;39;20397;-61
2022/12/19 06:47:04;;;;;;;14.68;9.52;;;;;;;7.78;88.96;101308.19;3607575;39;20043;-62
2022/12/19 06:49:29;;;;;;;14.55;9.35;;;;;;;7.77;88.59;101305.56;3607075;39;20781;-62
2022/12/19 06:51:55;;;;;;;11.38;8.55;;;;;;;7.82;88.72;101311.59;3609171;39;20058;-62
2022/12/19 06:54:20;;;;;;;12.90;8.23;;;;;;;7.79;88.64;101306.38;3609248;39;20061;-62
2022/12/19 06:56:46;;;;;;;9.43;7.85;;;;;;;7.80;89.34;101310.78;3607931;39;20047;-62
2022/12/19 06:59:15;;;;;;;12.10;8.63;;;;;;;7.81;89.54;101315.22;3612343;39;20057;-62
2022/12/19 07:02:33;;;;;;;12.82;8.10;;;;;;;7.85;89.38;101308.78;3611816;39;20086;-62
2022/12/19 07:05:06;;;;;;;12.02;8.65;;;;;;;7.87;89.67;101317.63;3579174;39;20266;-61
2022/12/19 07:07:32;;;;;;;10.85;8.32;;;;;;;7.85;89.13;101311.47;3599099;39;20128;-62
2022/12/19 07:09:58;;;;;;;11.50;8.57;;;;;;;7.87;89.76;101309.63;3608237;39;20046;-62
2022/12/19 07:12:24;;;;;;;10.63;8.43;;;;;;;7.85;89.77;101298.09;3609453;39;20054;-62
2022/12/19 07:14:49;;;;;;;10.23;8.27;;;;;;;7.90;89.43;101306.81;3613923;39;20062;-62
2022/12/19 07:17:16;;;;;;;10.20;7.63;;;;;;;7.91;89.67;101309.41;3612009;39;22364;-62
2022/12/19 07:19:42;;;;;;;9.70;8.23;;;;;;;7.90;89.58;101309.47;3608174;39;20366;-62
2022/12/19 07:22:08;;;;;;;14.10;8.45;;;;;;;7.88;89.59;101303.31;3607820;39;20073;-62
2022/12/19 07:24:35;;;;;;;11.00;8.15;;;;;;;7.92;89.49;101307.59;3607119;39;20067;-62
2022/12/19 07:27:02;;;;;;;13.07;8.00;;;;;;;7.95;89.32;101310.13;3613921;39;20061;-61
2022/12/19 07:29:27;;;;;;;11.32;8.05;;;;;;;7.95;88.58;101315.50;3609510;39;20063;-61
2022/12/19 07:31:53;;;;;;;10.80;8.00;;;;;;;7.89;89.12;101305.91;3607300;39;20059;-61
2022/12/19 07:34:19;;;;;;;9.55;7.75;;;;;;;7.93;88.47;101313.81;3609691;39;20115;-61
2022/12/19 07:36:44;;;;;;;10.23;7.75;;;;;;;7.96;88.33;101311.91;3607004;39;20378;-61
2022/12/19 07:39:10;;;;;;;8.85;7.45;;;;;;;7.97;88.67;101307.41;3607774;39;20070;-61
2022/12/19 07:41:37;;;;;;;7.82;6.97;;;;;;;7.94;88.08;101308.41;3601530;39;20059;-62
2022/12/19 07:44:03;;;;;;;8.48;7.00;;;;;;;7.96;88.76;101319.94;3607787;39;20055;-61
2022/12/19 07:46:29;;;;;;;8.50;6.82;;;;;;;7.99;88.51;101317.13;3607656;39;20065;-61
2022/12/19 07:48:58;;;;;;;10.57;7.15;;;;;;;8.00;88.67;101312.63;3610365;39;20051;-61
2022/12/19 07:51:24;;;;;;;10.07;7.00;;;;;;;7.94;87.99;101297.69;3608447;39;20057;-61
2022/12/19 07:53:50;;;;;;;9.32;6.47;;;;;;;8.03;87.93;101310.69;3608010;39;20059;-61
2022/12/19 07:56:16;;;;;;;9.63;7.25;;;;;;;8.04;88.14;101325.81;3604604;39;20122;-61
2022/12/19 07:58:43;;;;;;;10.30;7.38;;;;;;;8.08;87.81;101332.75;3607596;39;20051;-61
2022/12/19 08:01:11;;;;;;;8.18;6.38;;;;;;;8.09;87.79;101331.84;3608452;39;20095;-61
2022/12/19 08:03:37;;;;;;;11.23;6.75;;;;;;;8.14;87.81;101331.63;3606135;39;20047;-61
2022/12/19 08:06:05;;;;;;;7.70;6.28;;;;;;;8.17;87.14;101333.31;3607688;39;20119;-61
2022/12/19 08:08:33;;;;;;;9.40;6.88;;;;;;;8.03;87.05;101305.34;3607637;39;20066;-61
2022/12/19 08:11:12;;;;;;;9.27;6.78;;;;;;;8.19;86.69;101342.16;3609109;39;20468;-61
2022/12/19 08:13:37;;;;;;;8.13;6.35;;;;;;;8.24;86.90;101340.13;3608681;39;20098;-62
2022/12/19 08:16:04;;;;;;;7.82;6.50;;;;;;;8.23;86.87;101343.75;3610908;39;20298;-62
2022/12/19 08:18:30;;;;;;;8.68;5.93;;;;;;;8.27;86.67;101337.31;3604132;39;20071;-61
2022/12/19 08:20:56;;;;;;;7.78;6.30;;;;;;;8.28;86.62;101339.06;3607817;39;20067;-61
2022/12/19 08:23:21;;;;;;;9.15;6.55;;;;;;;8.29;86.30;101336.31;3608689;39;20058;-61
2022/12/19 08:25:47;;;;;;;7.45;5.88;;;;;;;8.31;86.50;101333.59;3606867;39;20043;-61
2022/12/19 08:28:13;;;;;;;7.65;5.80;;;;;;;8.33;86.33;101329.88;3608202;39;20050;-61
2022/12/19 08:30:40;;;;;;;9.73;7.13;;;;;;;8.32;86.18;101324.59;3608235;39;20061;-61
2022/12/19 08:33:06;;;;;;;11.95;7.30;;;;;;;8.37;85.45;101338.63;3604767;39;20592;-61
2022/12/19 08:35:34;;;;;;;13.10;7.25;;;;;;;8.42;85.44;101341.16;3607026;39;20103;-61
2022/12/19 08:37:59;;;;;;;10.35;7.15;;;;;;;8.42;85.35;101350.06;3609776;39;20055;-61
2022/12/19 08:40:25;;;;;;;11.45;7.70;;;;;;;8.43;85.41;101343.75;3610463;39;20066;-61
2022/12/19 08:42:51;;;;;;;11.93;6.90;;;;;;;8.45;85.83;101344.56;3610453;39;20058;-61
2022/12/19 08:45:17;;;;;;;9.70;6.35;;;;;;;8.47;85.82;101356.09;3609070;39;20148;-61
2022/12/19 08:47:43;;;;;;;7.72;6.28;;;;;;;8.49;85.07;101354.22;3606488;39;20058;-61
2022/12/19 08:50:10;;;;;;;10.75;5.80;;;;;;;8.55;85.64;101348.56;3600990;39;20126;-61
2022/12/19 08:52:36;;;;;;;7.70;5.57;;;;;;;8.54;85.20;101354.88;3612716;39;20063;-62
2022/12/19 08:55:03;;;;;;;6.70;5.93;;;;;;;8.55;85.75;101343.22;3613580;39;20317;-61
2022/12/19 08:57:29;;;;;;;7.00;5.97;;;;;;;8.62;85.42;101354.53;3605577;39;20100;-62
2022/12/19 08:59:54;;;;;;;8.20;6.68;;;;;;;8.65;84.77;101343.66;3606275;39;20325;-62
2022/12/19 09:02:20;;;;;;;8.93;6.40;;;;;;;8.65;84.45;101346.34;3607776;39;20050;-61
2022/12/19 09:04:46;;;;;;;6.28;5.57;;;;;;;8.69;84.93;101344.38;3611043;39;20090;-61
2022/12/19 09:07:12;;;;;;;8.70;5.80;;;;;;;8.74;84.09;101353.09;3611451;39;20054;-62
2022/12/19 09:09:38;;;;;;;6.65;5.03;;;;;;;8.78;83.90;101358.25;3607396;39;20349;-61
2022/12/19 09:12:03;;;;;;;8.43;5.00;;;;;;;8.84;83.81;101351.72;3610185;39;20054;-62
2022/12/19 09:14:35;;;;;;;8.52;5.80;;;;;;;8.84;83.15;101354.41;3607770;39;20071;-62
2022/12/19 09:17:01;;;;;;;6.13;5.13;;;;;;;8.84;82.92;101352.59;3607078;39;20154;-62
2022/12/19 09:19:27;;;;;;;6.65;5.13;;;;;;;8.86;83.26;101360.59;3613143;39;20332;-62
2022/12/19 09:21:52;;;;;;;8.73;5.55;;;;;;;8.89;83.38;101368.50;3608398;39;20091;-62
2022/12/19 09:24:19;;;;;;;8.43;5.20;;;;;;;8.88;82.97;101366.75;3606818;39;20416;-62
2022/12/19 09:26:44;;;;;;;6.60;5.35;;;;;;;8.90;83.98;101364.84;3607805;39;20077;-62
2022/12/19 09:29:11;;;;;;;10.80;5.57;;;;;;;8.91;83.28;101363.94;3608974;39;20298;-62
2022/12/19 09:31:37;;;;;;;8.10;5.40;;;;;;;8.92;84.16;101370.16;3608435;39;20124;-61
2022/12/19 09:34:03;;;;;;;8.57;5.40;;;;;;;8.93;83.96;101370.06;3606264;39;20801;-62
2022/12/19 09:36:29;;;;;;;8.98;5.63;;;;;;;8.98;83.39;101368.06;3607621;39;20059;-62
2022/12/19 09:38:57;;;;;;;8.18;5.53;;;;;;;8.98;83.38;101361.84;3611403;39;20050;-62
2022/12/19 09:42:06;;;;;;;7.63;5.50;;;;;;;9.00;83.56;101363.47;3610537;39;20383;-62
2022/12/19 09:45:24;;;;;;;7.28;5.25;;;;;;;9.02;83.79;101353.56;3605952;39;20066;-62
2022/12/19 09:47:59;;;;;;;6.55;5.55;;;;;;;9.10;83.51;101371.09;3607647;39;20637;-62
2022/12/19 09:50:42;;;;;;;8.93;5.40;;;;;;;9.14;83.16;101365.53;3605370;39;20061;-62
2022/12/19 09:53:49;;;;;;;6.20;4.68;;;;;;;9.24;82.65;101363.28;3608196;39;20107;-62
2022/12/19 09:56:17;;;;;;;6.28;4.65;;;;;;;9.33;82.06;101361.97;3608473;39;20043;-62
2022/12/19 09:58:53;;;;;;;7.13;4.78;;;;;;;9.34;82.49;101364.56;3606402;39;20063;-62
2022/12/19 10:01:38;;;;;;;7.05;4.93;;;;;;;9.36;82.18;101373.44;3608579;39;20301;-63
2022/12/19 10:04:17;;;;;;;7.60;4.65;;;;;;;9.39;81.88;101367.91;3607469;39;20420;-62
2022/12/19 10:06:43;;;;;;;8.77;5.25;;;;;;;9.44;81.87;101376.59;3609492;39;20039;-62
2022/12/19 10:09:16;;;;;;;6.72;4.57;;;;;;;9.47;81.23;101378.28;3600795;39;20363;-62
2022/12/19 10:11:58;;;;;;;7.05;4.70;;;;;;;9.48;81.52;101371.94;3607086;39;20091;-63
2022/12/19 10:14:36;;;;;;;7.13;4.53;;;;;;;9.49;81.38;101368.34;3608375;39;20047;-63
2022/12/19 10:17:27;;;;;;;7.47;4.80;;;;;;;9.53;81.16;101364.56;3604545;39;20455;-63
2022/12/19 10:20:25;;;;;;;8.23;5.20;;;;;;;9.54;80.79;101372.53;3611262;39;20688;-63
2022/12/19 10:22:58;;;;;;;8.02;5.30;;;;;;;9.56;81.02;101369.78;3610711;39;20058;-63
2022/12/19 10:25:45;;;;;;;8.48;5.10;;;;;;;9.56;80.31;101361.72;3612176;39;20108;-63
2022/12/19 10:28:23;;;;;;;5.68;4.72;;;;;;;9.60;80.03;101365.13;3610972;39;20059;-63
2022/12/19 10:31:34;;;;;;;5.10;3.95;;;;;;;9.62;80.33;101373.97;3610857;39;20051;-63
2022/12/19 10:34:12;;;;;;;6.15;4.35;;;;;;;9.60;79.91;101371.34;3555078;40;20085;-62
2022/12/19 10:36:50;;;;;;;6.43;4.22;;;;;;;9.61;80.32;101372.22;3553162;40;20057;-62
2022/12/19 10:39:50;;;;;;;5.00;4.00;;;;;;;9.56;80.96;101367.09;3589929;39;21067;-63
2022/12/19 10:42:54;;;;;;;4.55;3.88;;;;;;;9.64;81.07;101380.13;3610411;39;20051;-63
2022/12/19 10:45:22;;;;;;;5.53;4.25;;;;;;;9.64;80.66;101382.81;3610918;39;20126;-63
2022/12/19 10:47:57;;;;;;;4.93;4.03;;;;;;;9.58;81.06;101375.94;3609766;39;20453;-63
2022/12/19 10:50:30;;;;;;;6.38;4.30;;;;;;;9.59;82.06;101379.50;3607447;39;20056;-63
2022/12/19 10:53:02;;;;;;;7.03;4.78;;;;;;;9.55;82.19;101378.78;3607067;39;20070;-63
2022/12/19 10:55:36;;;;;;;7.28;4.78;;;;;;;9.50;82.85;101384.34;3608770;39;20046;-63
2022/12/19 10:58:36;;;;;;;8.02;5.00;;;;;;;9.45;83.24;101377.47;3609498;39;20063;-61
2022/12/19 11:01:14;;;;;;;6.18;4.75;;;;;;;9.40;83.90;101376.84;3611104;39;20063;-63
2022/12/19 11:03:50;;;;;;;5.50;4.47;;;;;;;9.40;84.93;101374.16;3609610;39;20093;-60
2022/12/19 11:06:34;;;;;;;6.32;4.63;;;;;;;9.36;85.10;101351.97;3609809;39;20394;-61
2022/12/19 11:09:28;;;;;;;6.30;5.28;;;;;;;9.35;85.53;101360.94;3608226;39;20086;-60
2022/12/19 11:12:10;;;;;;;;;;;;;;;9.30;85.83;101363.88;3609828;39;20063;-61
2022/12/19 11:14:41;;;;;;;7.13;4.78;;;;;;;9.30;86.21;101373.72;3609183;39;19923;-61
2022/12/19 11:17:24;;;;;;;6.80;4.75;;;;;;;9.19;85.74;101335.81;3606888;39;20101;-61
2022/12/19 11:19:50;;;;;;;6.83;4.77;;;;;;;9.32;86.30;101342.31;3606113;39;20089;-61
2022/12/19 11:22:26;;;;;;;6.43;4.72;;;;;;;9.27;86.33;101334.50;3607075;39;20413;-61
2022/12/19 11:24:54;;;;;;;5.25;4.72;;;;;;;9.05;85.83;101305.16;3606782;39;20087;-61
2022/12/19 11:27:47;;;;;;;5.53;4.93;;;;;;;9.32;85.43;101336.94;3606316;39;20066;-62
2022/12/19 11:30:28;;;;;;;5.80;5.20;;;;;;;9.36;85.94;101335.88;3609965;39;20039;-61
2022/12/19 11:33:17;;;;;;;7.22;4.78;;;;;;;9.39;84.78;101329.50;3609389;39;20775;-61
2022/12/19 11:35:53;;;;;;;8.70;5.00;;;;;;;9.42;84.45;101326.63;3607705;39;20066;-62
2022/12/19 11:38:44;;;;;;;6.80;4.57;;;;;;;9.47;84.00;101308.50;3609118;39;20413;-61
2022/12/19 11:41:47;;;;;;;6.05;5.10;;;;;;;9.53;83.22;101322.47;3609729;39;20112;-62
2022/12/19 11:44:32;;;;;;;6.35;4.43;;;;;;;9.61;83.10;101316.75;3609321;39;20047;-62
2022/12/19 11:47:35;;;;;;;5.45;4.65;;;;;;;9.66;82.62;101316.50;3610394;39;20055;-61
2022/12/19 11:50:22;;;;;;;4.90;4.40;;;;;;;9.72;82.02;101317.06;3609201;39;20059;-61
2022/12/19 11:52:57;;;;;;;6.05;4.45;;;;;;;9.80;81.23;101307.75;3607602;39;20057;-62